createdAt,value
2023-05-19T00:00:14.761Z,11.78
2023-05-19T00:01:14.755Z,11.74
2023-05-19T00:02:14.801Z,11.68
2023-05-19T00:03:14.961Z,11.68
2023-05-19T00:04:14.861Z,11.74
2023-05-19T00:05:14.929Z,11.74
2023-05-19T00:06:15.115Z,11.75
2023-05-19T00:07:15.024Z,11.77
2023-05-19T00:08:15.061Z,11.67
2023-05-19T00:09:15.988Z,11.71
2023-05-19T00:10:15.112Z,11.73
2023-05-19T00:11:15.133Z,11.71
2023-05-19T00:12:15.134Z,11.75
2023-05-19T00:13:15.123Z,11.77
2023-05-19T00:14:15.113Z,11.81
2023-05-19T00:15:15.098Z,11.81
2023-05-19T00:16:15.166Z,11.81
2023-05-19T00:17:15.106Z,11.84
2023-05-19T00:18:15.180Z,11.84
2023-05-19T00:19:15.127Z,11.82
2023-05-19T00:20:15.095Z,11.80
2023-05-19T00:21:15.117Z,11.82
2023-05-19T00:22:15.114Z,11.84
2023-05-19T00:23:15.120Z,11.84
2023-05-19T00:24:15.121Z,11.84
2023-05-19T00:25:15.127Z,11.82
2023-05-19T00:26:15.184Z,11.84
2023-05-19T00:27:15.239Z,11.81
2023-05-19T00:28:15.296Z,11.82
2023-05-19T00:29:15.361Z,11.78
2023-05-19T00:30:15.460Z,11.77
2023-05-19T00:31:15.535Z,11.73
2023-05-19T00:32:15.610Z,11.74
2023-05-19T00:33:15.551Z,11.75
2023-05-19T00:34:15.543Z,11.77
2023-05-19T00:35:15.592Z,11.74
2023-05-19T00:36:15.697Z,11.75
2023-05-19T00:37:15.715Z,11.75
2023-05-19T00:38:15.739Z,11.77
2023-05-19T00:39:16.530Z,11.74
2023-05-19T00:40:15.818Z,11.71
2023-05-19T00:41:15.908Z,11.71
2023-05-19T00:42:15.983Z,11.73
2023-05-19T00:43:16.011Z,11.70
2023-05-19T00:44:16.057Z,11.68
2023-05-19T00:45:16.092Z,11.66
2023-05-19T00:46:16.179Z,11.63
2023-05-19T00:47:16.243Z,11.61
2023-05-19T00:48:16.318Z,11.61
2023-05-19T00:49:16.361Z,11.60
2023-05-19T00:50:16.421Z,11.57
2023-05-19T00:51:16.427Z,11.57
2023-05-19T00:52:16.459Z,11.58
2023-05-19T00:53:16.496Z,11.58
2023-05-19T00:54:16.570Z,11.57
2023-05-19T00:55:16.624Z,11.57
2023-05-19T00:56:16.659Z,11.54
2023-05-19T00:57:16.634Z,11.57
2023-05-19T00:58:16.685Z,11.56
2023-05-19T00:59:16.678Z,11.47
2023-05-19T01:00:16.718Z,11.53
2023-05-19T01:01:16.835Z,11.56
2023-05-19T01:02:16.854Z,11.54
2023-05-19T01:03:16.952Z,11.56
2023-05-19T01:04:16.997Z,11.54
2023-05-19T01:05:17.078Z,11.60
2023-05-19T01:06:17.137Z,11.60
2023-05-19T01:07:17.209Z,11.57
2023-05-19T01:08:17.276Z,11.57
2023-05-19T01:09:17.295Z,11.56
2023-05-19T01:10:17.315Z,11.53
2023-05-19T01:11:17.506Z,11.53
2023-05-19T01:12:17.414Z,11.43
2023-05-19T01:13:17.483Z,11.49
2023-05-19T01:14:17.580Z,11.49
2023-05-19T01:15:17.676Z,11.49
2023-05-19T01:16:17.696Z,11.47
2023-05-19T01:17:17.695Z,11.51
2023-05-19T01:18:17.722Z,11.54
2023-05-19T01:19:17.831Z,11.53
2023-05-19T01:20:17.808Z,11.57
2023-05-19T01:21:17.805Z,11.54
2023-05-19T01:22:17.872Z,11.54
2023-05-19T01:23:17.923Z,11.53
2023-05-19T01:24:17.989Z,11.56
2023-05-19T01:25:17.992Z,11.50
2023-05-19T01:26:18.025Z,11.51
2023-05-19T01:27:18.052Z,11.49
2023-05-19T01:28:18.106Z,11.50
2023-05-19T01:29:18.128Z,11.49
2023-05-19T01:30:18.143Z,11.46
2023-05-19T01:31:18.246Z,11.46
2023-05-19T01:32:18.262Z,11.47
2023-05-19T01:33:18.333Z,11.47
2023-05-19T01:34:18.408Z,11.50
2023-05-19T01:35:18.448Z,11.49
2023-05-19T01:36:19.034Z,11.47
2023-05-19T01:37:18.576Z,11.44
2023-05-19T01:38:18.589Z,11.43
2023-05-19T01:39:18.627Z,11.40
2023-05-19T01:40:18.652Z,11.39
2023-05-19T01:41:18.696Z,11.37
2023-05-19T01:42:18.770Z,11.33
2023-05-19T01:43:18.821Z,11.33
2023-05-19T01:44:18.889Z,11.33
2023-05-19T01:45:18.970Z,11.32
2023-05-19T01:46:19.109Z,11.27
2023-05-19T01:47:19.106Z,11.23
2023-05-19T01:48:19.152Z,11.22
2023-05-19T01:49:19.209Z,11.18
2023-05-19T01:50:19.284Z,11.13
2023-05-19T01:51:19.314Z,11.12
2023-05-19T01:52:19.361Z,11.09
2023-05-19T01:53:19.348Z,11.06
2023-05-19T01:54:19.375Z,10.99
2023-05-19T01:55:19.403Z,10.96
2023-05-19T01:56:19.429Z,10.91
2023-05-19T01:57:19.468Z,10.90
2023-05-19T01:58:19.498Z,10.85
2023-05-19T01:59:19.537Z,10.78
2023-05-19T02:00:21.234Z,10.74
2023-05-19T02:01:19.585Z,10.72
2023-05-19T02:02:19.614Z,10.70
2023-05-19T02:03:19.760Z,10.65
2023-05-19T02:04:19.845Z,10.63
2023-05-19T02:05:19.807Z,10.61
2023-05-19T02:06:19.878Z,10.59
2023-05-19T02:07:19.926Z,10.59
2023-05-19T02:08:19.970Z,10.56
2023-05-19T02:09:19.993Z,10.53
2023-05-19T02:10:20.069Z,10.49
2023-05-19T02:11:20.159Z,10.47
2023-05-19T02:12:20.226Z,10.47
2023-05-19T02:13:20.240Z,10.49
2023-05-19T02:14:20.283Z,10.46
2023-05-19T02:15:20.317Z,10.43
2023-05-19T02:16:20.455Z,10.47
2023-05-19T02:17:20.428Z,10.51
2023-05-19T02:18:20.411Z,10.51
2023-05-19T02:19:20.515Z,10.50
2023-05-19T02:20:20.468Z,10.49
2023-05-19T02:21:20.524Z,10.49
2023-05-19T02:22:20.531Z,10.50
2023-05-19T02:23:20.572Z,10.49
2023-05-19T02:24:20.592Z,10.49
2023-05-19T02:25:20.634Z,10.47
2023-05-19T02:26:20.673Z,10.46
2023-05-19T02:27:20.709Z,10.40
2023-05-19T02:28:20.766Z,10.42
2023-05-19T02:29:20.757Z,10.46
2023-05-19T02:30:20.941Z,10.46
2023-05-19T02:31:20.833Z,10.47
2023-05-19T02:32:20.831Z,10.46
2023-05-19T02:33:20.850Z,10.44
2023-05-19T02:34:21.515Z,10.44
2023-05-19T02:35:20.999Z,10.39
2023-05-19T02:36:21.075Z,10.32
2023-05-19T02:37:21.140Z,10.35
2023-05-19T02:38:21.162Z,10.33
2023-05-19T02:39:21.193Z,10.26
2023-05-19T02:40:21.207Z,10.26
2023-05-19T02:41:21.245Z,10.19
2023-05-19T02:42:21.280Z,10.19
2023-05-19T02:43:21.367Z,10.17
2023-05-19T02:44:21.355Z,10.15
2023-05-19T02:45:21.360Z,10.13
2023-05-19T02:46:21.584Z,10.12
2023-05-19T02:47:21.478Z,10.15
2023-05-19T02:48:21.502Z,10.10
2023-05-19T02:49:21.521Z,10.13
2023-05-19T02:50:21.565Z,10.12
2023-05-19T02:51:21.599Z,10.12
2023-05-19T02:52:21.675Z,10.16
2023-05-19T02:53:21.743Z,10.13
2023-05-19T02:54:21.808Z,10.15
2023-05-19T02:55:21.889Z,10.13
2023-05-19T02:56:21.924Z,10.15
2023-05-19T02:57:21.988Z,10.13
2023-05-19T02:58:22.050Z,10.15
2023-05-19T02:59:21.992Z,10.16
2023-05-19T03:00:22.041Z,10.15
2023-05-19T03:01:22.142Z,10.08
2023-05-19T03:02:22.132Z,10.04
2023-05-19T03:03:22.242Z,10.05
2023-05-19T03:04:22.201Z,10.10
2023-05-19T03:05:22.273Z,10.16
2023-05-19T03:06:22.255Z,10.01
2023-05-19T03:07:22.279Z,10.08
2023-05-19T03:08:22.301Z,10.10
2023-05-19T03:09:22.320Z,10.12
2023-05-19T03:10:22.379Z,10.05
2023-05-19T03:11:22.382Z,10.04
2023-05-19T03:12:22.418Z,10.06
2023-05-19T03:13:22.436Z,10.01
2023-05-19T03:14:22.465Z,9.95
2023-05-19T03:15:22.508Z,9.97
2023-05-19T03:16:22.596Z,9.88
2023-05-19T03:17:22.631Z,9.92
2023-05-19T03:18:22.626Z,9.95
2023-05-19T03:19:22.844Z,9.95
2023-05-19T03:20:22.784Z,9.99
2023-05-19T03:21:22.914Z,9.99
2023-05-19T03:22:22.946Z,10.01
2023-05-19T03:23:23.037Z,9.99
2023-05-19T03:24:23.090Z,9.98
2023-05-19T03:25:23.144Z,9.98
2023-05-19T03:26:23.198Z,9.97
2023-05-19T03:27:23.297Z,9.95
2023-05-19T03:28:23.318Z,9.94
2023-05-19T03:29:23.345Z,9.92
2023-05-19T03:30:23.359Z,9.94
2023-05-19T03:31:23.379Z,9.91
2023-05-19T03:32:23.473Z,9.92
2023-05-19T03:33:23.693Z,9.91
2023-05-19T03:34:23.492Z,9.94
2023-05-19T03:35:23.492Z,9.91
2023-05-19T03:36:23.491Z,9.94
2023-05-19T03:37:23.552Z,9.95
2023-05-19T03:38:23.633Z,9.94
2023-05-19T03:39:23.667Z,9.97
2023-05-19T03:40:23.709Z,9.98
2023-05-19T03:41:23.771Z,10.01
2023-05-19T03:42:23.850Z,10.02
2023-05-19T03:43:23.905Z,10.05
2023-05-19T03:44:23.955Z,10.05
2023-05-19T03:45:24.009Z,10.08
2023-05-19T03:46:24.150Z,10.08
2023-05-19T03:47:24.247Z,10.09
2023-05-19T03:48:24.275Z,10.12
2023-05-19T03:49:24.367Z,10.16
2023-05-19T03:50:24.409Z,10.16
2023-05-19T03:51:24.491Z,10.17
2023-05-19T03:52:24.552Z,10.20
2023-05-19T03:53:24.661Z,10.25
2023-05-19T03:54:24.702Z,10.26
2023-05-19T03:55:24.758Z,10.29
2023-05-19T03:56:24.829Z,10.32
2023-05-19T03:57:24.852Z,10.37
2023-05-19T03:58:24.920Z,10.39
2023-05-19T03:59:24.943Z,10.42
2023-05-19T04:00:25.024Z,10.43
2023-05-19T04:01:25.018Z,10.49
2023-05-19T04:02:25.168Z,10.56
2023-05-19T04:03:25.159Z,10.57
2023-05-19T04:04:25.215Z,10.61
2023-05-19T04:05:25.206Z,10.68
2023-05-19T04:06:25.264Z,10.72
2023-05-19T04:07:25.346Z,10.79
2023-05-19T04:08:25.365Z,10.84
2023-05-19T04:09:25.409Z,10.88
2023-05-19T04:10:25.446Z,10.98
2023-05-19T04:11:25.499Z,10.98
2023-05-19T04:12:25.594Z,10.99
2023-05-19T04:13:25.673Z,11.02
2023-05-19T04:14:25.701Z,11.01
2023-05-19T04:15:25.727Z,11.08
2023-05-19T04:16:25.774Z,11.08
2023-05-19T04:17:25.845Z,11.08
2023-05-19T04:18:26.935Z,11.06
2023-05-19T04:19:25.898Z,11.05
2023-05-19T04:20:25.913Z,11.06
2023-05-19T04:21:25.926Z,11.06
2023-05-19T04:22:25.978Z,11.09
2023-05-19T04:23:25.945Z,11.06
2023-05-19T04:24:25.983Z,11.06
2023-05-19T04:25:25.979Z,11.13
2023-05-19T04:26:25.988Z,11.16
2023-05-19T04:27:26.026Z,11.18
2023-05-19T04:28:26.023Z,11.21
2023-05-19T04:29:26.023Z,11.27
2023-05-19T04:30:26.058Z,11.33
2023-05-19T04:31:26.113Z,11.37
2023-05-19T04:32:26.173Z,11.43
2023-05-19T04:33:26.064Z,11.43
2023-05-19T04:34:26.079Z,11.26
2023-05-19T04:35:26.060Z,11.37
2023-05-19T04:36:26.107Z,11.44
2023-05-19T04:37:26.112Z,11.49
2023-05-19T04:38:26.098Z,11.57
2023-05-19T04:39:26.124Z,11.60
2023-05-19T04:40:26.112Z,11.63
2023-05-19T04:41:26.144Z,11.71
2023-05-19T04:42:26.261Z,11.73
2023-05-19T04:43:26.140Z,11.77
2023-05-19T04:44:26.170Z,11.71
2023-05-19T04:45:26.180Z,11.80
2023-05-19T04:46:26.281Z,11.78
2023-05-19T04:47:26.272Z,11.84
2023-05-19T04:48:26.217Z,11.81
2023-05-19T04:49:26.260Z,11.88
2023-05-19T04:50:26.263Z,11.91
2023-05-19T04:51:26.268Z,11.94
2023-05-19T04:52:26.262Z,11.99
2023-05-19T04:53:26.264Z,11.99
2023-05-19T04:54:26.276Z,12.05
2023-05-19T04:55:26.295Z,12.06
2023-05-19T04:56:26.298Z,12.08
2023-05-19T04:57:26.271Z,12.08
2023-05-19T04:58:26.277Z,12.16
2023-05-19T04:59:26.265Z,12.18
2023-05-19T05:00:26.277Z,12.22
2023-05-19T05:01:26.470Z,12.26
2023-05-19T05:02:26.324Z,12.29
2023-05-19T05:03:26.612Z,12.33
2023-05-19T05:04:26.284Z,12.36
2023-05-19T05:05:26.280Z,12.40
2023-05-19T05:06:26.297Z,12.41
2023-05-19T05:07:26.299Z,12.43
2023-05-19T05:08:26.288Z,12.46
2023-05-19T05:09:26.294Z,12.46
2023-05-19T05:10:26.290Z,12.32
2023-05-19T05:11:26.298Z,12.47
2023-05-19T05:12:26.338Z,12.53
2023-05-19T05:13:26.320Z,12.57
2023-05-19T05:14:26.322Z,12.60
2023-05-19T05:15:26.325Z,12.68
2023-05-19T05:16:26.360Z,12.74
2023-05-19T05:17:26.404Z,12.58
2023-05-19T05:18:26.411Z,12.75
2023-05-19T05:19:26.630Z,12.87
2023-05-19T05:20:26.544Z,12.98
2023-05-19T05:21:26.612Z,13.03
2023-05-19T05:22:26.633Z,13.16
2023-05-19T05:23:26.655Z,13.20
2023-05-19T05:24:26.681Z,13.08
2023-05-19T05:25:26.680Z,13.15
2023-05-19T05:26:26.681Z,13.23
2023-05-19T05:27:26.662Z,13.13
2023-05-19T05:28:26.745Z,13.25
2023-05-19T05:29:26.715Z,13.27
2023-05-19T05:30:26.720Z,13.43
2023-05-19T05:31:26.750Z,13.19
2023-05-19T05:32:26.834Z,13.46
2023-05-19T05:33:26.964Z,13.56
2023-05-19T05:34:26.861Z,13.68
2023-05-19T05:35:26.872Z,13.80
2023-05-19T05:36:26.936Z,13.85
2023-05-19T05:37:26.908Z,13.97
2023-05-19T05:38:26.977Z,14.05
2023-05-19T05:39:27.088Z,14.13
2023-05-19T05:40:27.135Z,14.22
2023-05-19T05:41:27.186Z,14.36
2023-05-19T05:42:28.979Z,14.44
2023-05-19T05:43:27.301Z,14.56
2023-05-19T05:44:27.340Z,14.66
2023-05-19T05:45:27.405Z,14.68
2023-05-19T05:46:27.494Z,14.77
2023-05-19T05:47:27.422Z,14.74
2023-05-19T05:48:27.445Z,14.94
2023-05-19T05:49:27.399Z,15.03
2023-05-19T05:50:27.365Z,14.56
2023-05-19T05:51:27.280Z,14.53
2023-05-19T05:52:27.239Z,13.58
2023-05-19T05:53:27.202Z,13.60
2023-05-19T05:54:27.176Z,13.42
2023-05-19T05:55:27.187Z,13.27
2023-05-19T05:56:27.162Z,13.68
2023-05-19T05:57:27.152Z,13.75
2023-05-19T05:58:27.149Z,13.85
2023-05-19T05:59:27.097Z,14.12
2023-05-19T06:00:27.046Z,14.33
2023-05-19T06:01:27.061Z,14.51
2023-05-19T06:02:27.099Z,14.48
2023-05-19T06:03:27.136Z,14.71
2023-05-19T06:04:27.019Z,14.92
2023-05-19T06:05:27.171Z,14.82
2023-05-19T06:06:27.100Z,14.91
2023-05-19T06:07:27.086Z,15.10
2023-05-19T06:08:27.165Z,15.26
2023-05-19T06:09:27.081Z,15.43
2023-05-19T06:10:27.039Z,15.46
2023-05-19T06:11:27.084Z,15.26
2023-05-19T06:12:27.039Z,15.40
2023-05-19T06:13:26.938Z,15.61
2023-05-19T06:14:26.908Z,15.37
2023-05-19T06:15:26.850Z,15.37
2023-05-19T06:16:26.851Z,15.60
2023-05-19T06:17:26.843Z,15.81
2023-05-19T06:18:26.792Z,15.98
2023-05-19T06:19:26.796Z,15.94
2023-05-19T06:20:26.686Z,16.02
2023-05-19T06:21:26.709Z,16.15
2023-05-19T06:22:26.750Z,16.06
2023-05-19T06:23:26.788Z,15.92
2023-05-19T06:24:26.720Z,16.30
2023-05-19T06:25:26.763Z,16.22
2023-05-19T06:26:26.787Z,16.43
2023-05-19T06:27:26.792Z,16.15
2023-05-19T06:28:26.795Z,15.99
2023-05-19T06:29:26.812Z,16.06
2023-05-19T06:30:26.792Z,15.94
2023-05-19T06:31:26.855Z,15.50
2023-05-19T06:32:26.776Z,15.98
2023-05-19T06:33:28.960Z,15.51
2023-05-19T06:34:26.908Z,15.84
2023-05-19T06:35:26.882Z,15.60
2023-05-19T06:36:26.921Z,15.00
2023-05-19T06:37:26.920Z,15.42
2023-05-19T06:38:26.898Z,15.25
2023-05-19T06:39:26.892Z,14.92
2023-05-19T06:40:26.963Z,15.22
2023-05-19T06:41:26.863Z,15.03
2023-05-19T06:42:26.920Z,15.44
2023-05-19T06:43:26.920Z,15.19
2023-05-19T06:44:26.903Z,15.32
2023-05-19T06:45:26.871Z,15.26
2023-05-19T06:46:26.916Z,15.00
2023-05-19T06:47:26.927Z,15.33
2023-05-19T06:48:26.922Z,15.22
2023-05-19T06:49:26.953Z,15.46
2023-05-19T06:50:26.959Z,14.95
2023-05-19T06:51:26.973Z,15.19
2023-05-19T06:52:26.958Z,15.33
2023-05-19T06:53:26.978Z,15.10
2023-05-19T06:54:27.021Z,15.58
2023-05-19T06:55:26.989Z,15.68
2023-05-19T06:56:26.985Z,15.75
2023-05-19T06:57:26.987Z,15.49
2023-05-19T06:58:27.002Z,14.96
2023-05-19T06:59:27.021Z,15.21
2023-05-19T07:00:27.031Z,14.84
2023-05-19T07:01:27.026Z,14.60
2023-05-19T07:02:27.024Z,14.50
2023-05-19T07:03:27.080Z,14.87
2023-05-19T07:04:26.951Z,14.59
2023-05-19T07:05:26.917Z,14.43
2023-05-19T07:06:26.906Z,14.53
2023-05-19T07:07:26.874Z,14.64
2023-05-19T07:08:26.902Z,15.12
2023-05-19T07:09:26.882Z,14.71
2023-05-19T07:10:26.943Z,14.91
2023-05-19T07:11:26.915Z,15.05
2023-05-19T07:12:26.927Z,15.58
2023-05-19T07:13:27.555Z,15.16
2023-05-19T07:14:26.924Z,15.78
2023-05-19T07:15:26.949Z,15.85
2023-05-19T07:16:26.932Z,15.98
2023-05-19T07:17:26.944Z,16.50
2023-05-19T07:18:26.922Z,16.94
2023-05-19T07:19:26.938Z,17.20
2023-05-19T07:20:26.908Z,17.75
2023-05-19T07:21:26.829Z,17.63
2023-05-19T07:22:26.824Z,17.64
2023-05-19T07:23:26.799Z,17.19
2023-05-19T07:24:26.816Z,17.13
2023-05-19T07:25:26.760Z,17.41
2023-05-19T07:26:26.779Z,17.61
2023-05-19T07:27:26.766Z,17.70
2023-05-19T07:28:26.792Z,17.06
2023-05-19T07:29:27.598Z,17.12
2023-05-19T07:30:26.781Z,17.33
2023-05-19T07:31:26.807Z,17.68
2023-05-19T07:32:26.824Z,17.53
2023-05-19T07:33:26.720Z,17.82
2023-05-19T07:34:26.709Z,18.03
2023-05-19T07:35:26.667Z,17.68
2023-05-19T07:36:26.626Z,18.15
2023-05-19T07:37:26.641Z,17.09
2023-05-19T07:38:26.667Z,17.33
2023-05-19T07:39:26.522Z,17.75
2023-05-19T07:40:26.482Z,17.73
2023-05-19T07:41:26.447Z,16.91
2023-05-19T07:42:26.544Z,17.47
2023-05-19T07:43:26.351Z,17.41
2023-05-19T07:44:26.363Z,17.25
2023-05-19T07:45:26.316Z,16.95
2023-05-19T07:46:26.359Z,16.67
2023-05-19T07:47:26.319Z,16.70
2023-05-19T07:48:26.284Z,16.72
2023-05-19T07:49:26.217Z,16.56
2023-05-19T07:50:26.251Z,16.41
2023-05-19T07:51:26.121Z,16.27
2023-05-19T07:52:26.240Z,16.26
2023-05-19T07:53:26.036Z,17.03
2023-05-19T07:54:26.026Z,17.26
2023-05-19T07:55:25.924Z,16.57
2023-05-19T07:56:25.887Z,16.68
2023-05-19T07:57:25.948Z,17.03
2023-05-19T07:58:25.831Z,17.01
2023-05-19T07:59:25.751Z,17.47
2023-05-19T08:00:25.758Z,18.33
2023-05-19T08:01:25.874Z,18.70
2023-05-19T08:02:25.801Z,18.43
2023-05-19T08:03:25.833Z,18.06
2023-05-19T08:04:25.689Z,18.22
2023-05-19T08:05:25.676Z,18.37
2023-05-19T08:06:25.622Z,17.51
2023-05-19T08:07:25.590Z,17.44
2023-05-19T08:08:25.571Z,17.13
2023-05-19T08:09:25.569Z,17.27
2023-05-19T08:10:25.545Z,17.20
2023-05-19T08:11:25.544Z,17.48
2023-05-19T08:12:25.580Z,17.43
2023-05-19T08:13:26.121Z,17.37
2023-05-19T08:14:25.565Z,17.02
2023-05-19T08:15:25.602Z,17.06
2023-05-19T08:16:25.677Z,17.27
2023-05-19T08:17:25.533Z,17.40
2023-05-19T08:18:25.483Z,17.78
2023-05-19T08:19:25.475Z,18.15
2023-05-19T08:20:25.421Z,17.74
2023-05-19T08:21:25.385Z,18.03
2023-05-19T08:22:27.162Z,18.53
2023-05-19T08:23:25.369Z,17.57
2023-05-19T08:24:25.393Z,17.71
2023-05-19T08:25:25.306Z,17.56
2023-05-19T08:26:25.286Z,17.61
2023-05-19T08:27:25.314Z,17.75
2023-05-19T08:28:25.280Z,17.43
2023-05-19T08:29:25.282Z,17.67
2023-05-19T08:30:25.248Z,17.64
2023-05-19T08:31:26.159Z,17.08
2023-05-19T08:32:25.320Z,17.51
2023-05-19T08:33:25.278Z,17.22
2023-05-19T08:34:26.122Z,17.82
2023-05-19T08:35:25.210Z,17.41
2023-05-19T08:36:25.328Z,16.94
2023-05-19T08:37:25.278Z,17.08
2023-05-19T08:38:25.204Z,17.01
2023-05-19T08:39:25.159Z,16.98
2023-05-19T08:40:25.094Z,17.02
2023-05-19T08:41:25.059Z,17.22
2023-05-19T08:42:25.034Z,17.29
2023-05-19T08:43:25.016Z,17.39
2023-05-19T08:44:24.981Z,17.71
2023-05-19T08:45:24.954Z,17.51
2023-05-19T08:46:24.975Z,17.77
2023-05-19T08:47:24.930Z,17.15
2023-05-19T08:48:24.829Z,17.50
2023-05-19T08:49:25.717Z,17.19
2023-05-19T08:50:24.799Z,17.68
2023-05-19T08:51:24.754Z,17.56
2023-05-19T08:52:24.702Z,17.23
2023-05-19T08:54:25.638Z,17.57
2023-05-19T08:55:24.532Z,16.88
2023-05-19T08:56:24.497Z,17.15
2023-05-19T08:57:24.467Z,17.43
2023-05-19T08:58:24.733Z,17.71
2023-05-19T08:59:24.350Z,18.37
2023-05-19T09:00:24.315Z,17.86
2023-05-19T09:01:24.356Z,17.31
2023-05-19T09:02:24.388Z,18.05
2023-05-19T09:03:24.501Z,17.78
2023-05-19T09:04:24.211Z,17.68
2023-05-19T09:05:24.074Z,17.34
2023-05-19T09:06:24.690Z,17.27
2023-05-19T09:07:24.048Z,16.75
2023-05-19T09:08:24.008Z,16.86
2023-05-19T09:09:23.982Z,17.36
2023-05-19T09:10:23.929Z,17.56
2023-05-19T09:11:23.857Z,17.39
2023-05-19T09:12:23.885Z,17.50
2023-05-19T09:13:23.841Z,17.80
2023-05-19T09:14:23.832Z,18.47
2023-05-19T09:15:23.834Z,18.99
2023-05-19T09:16:23.923Z,18.47
2023-05-19T09:17:23.871Z,18.39
2023-05-19T09:18:23.820Z,18.33
2023-05-19T09:19:23.915Z,18.65
2023-05-19T09:20:23.742Z,18.33
2023-05-19T09:21:23.716Z,17.99
2023-05-19T09:22:23.706Z,17.93
2023-05-19T09:23:23.667Z,18.94
2023-05-19T09:24:23.637Z,19.61
2023-05-19T09:25:23.565Z,20.23
2023-05-19T09:26:23.540Z,18.23
2023-05-19T09:27:23.519Z,19.10
2023-05-19T09:28:23.513Z,18.91
2023-05-19T09:29:23.455Z,18.22
2023-05-19T09:30:23.396Z,18.71
2023-05-19T09:31:23.363Z,18.65
2023-05-19T09:32:23.333Z,18.65
2023-05-19T09:33:23.224Z,18.32
2023-05-19T09:34:23.228Z,17.89
2023-05-19T09:35:23.123Z,18.71
2023-05-19T09:36:23.064Z,18.37
2023-05-19T09:37:23.011Z,19.27
2023-05-19T09:38:23.031Z,18.60
2023-05-19T09:39:22.934Z,18.44
2023-05-19T09:40:22.863Z,19.16
2023-05-19T09:41:22.783Z,19.37
2023-05-19T09:42:22.747Z,18.89
2023-05-19T09:43:23.129Z,18.95
2023-05-19T09:44:22.584Z,18.64
2023-05-19T09:45:22.497Z,19.20
2023-05-19T09:46:22.551Z,18.60
2023-05-19T09:47:22.467Z,18.27
2023-05-19T09:48:22.344Z,18.92
2023-05-19T09:49:22.324Z,19.37
2023-05-19T09:50:22.232Z,20.02
2023-05-19T09:51:22.198Z,20.04
2023-05-19T09:52:22.133Z,20.87
2023-05-19T09:53:22.089Z,21.33
2023-05-19T09:54:22.057Z,21.54
2023-05-19T09:55:21.971Z,20.55
2023-05-19T09:56:21.883Z,21.36
2023-05-19T09:57:24.656Z,22.15
2023-05-19T09:58:21.722Z,22.48
2023-05-19T09:59:21.626Z,22.88
2023-05-19T10:00:21.551Z,22.20
2023-05-19T10:01:21.507Z,22.87
2023-05-19T10:02:21.343Z,23.34
2023-05-19T10:03:21.187Z,23.49
2023-05-19T10:04:21.119Z,23.49
2023-05-19T10:05:21.054Z,23.25
2023-05-19T10:06:20.941Z,23.99
2023-05-19T10:07:20.848Z,22.94
2023-05-19T10:08:20.729Z,24.11
2023-05-19T10:09:20.598Z,24.12
2023-05-19T10:10:20.552Z,24.49
2023-05-19T10:11:20.509Z,24.88
2023-05-19T10:12:20.342Z,24.79
2023-05-19T10:13:20.247Z,24.78
2023-05-19T10:14:20.122Z,24.66
2023-05-19T10:15:22.232Z,24.94
2023-05-19T10:16:19.929Z,24.82
2023-05-19T10:17:19.921Z,24.85
2023-05-19T10:18:19.690Z,24.87
2023-05-19T10:19:19.633Z,24.95
2023-05-19T10:20:19.529Z,24.94
2023-05-19T10:21:19.389Z,24.89
2023-05-19T10:22:19.301Z,25.04
2023-05-19T10:23:19.221Z,24.56
2023-05-19T10:24:19.115Z,24.85
2023-05-19T10:25:19.057Z,24.91
2023-05-19T10:26:18.983Z,25.04
2023-05-19T10:27:18.844Z,25.06
2023-05-19T10:28:18.757Z,24.39
2023-05-19T10:29:18.673Z,24.54
2023-05-19T10:30:18.660Z,24.72
2023-05-19T10:31:18.511Z,24.71
2023-05-19T10:32:18.463Z,24.17
2023-05-19T10:33:18.452Z,24.71
2023-05-19T10:34:18.206Z,25.08
2023-05-19T10:35:18.128Z,25.22
2023-05-19T10:36:18.083Z,25.53
2023-05-19T10:37:17.849Z,25.67
2023-05-19T10:38:17.769Z,25.81
2023-05-19T10:39:17.734Z,26.12
2023-05-19T10:40:17.529Z,26.11
2023-05-19T10:41:17.418Z,26.23
2023-05-19T10:42:17.326Z,26.18
2023-05-19T10:43:17.242Z,26.01
2023-05-19T10:44:19.152Z,25.71
2023-05-19T10:45:17.032Z,25.89
2023-05-19T10:46:16.910Z,26.01
2023-05-19T10:47:16.938Z,26.13
2023-05-19T10:48:16.831Z,26.36
2023-05-19T10:49:16.692Z,26.44
2023-05-19T10:50:16.619Z,26.43
2023-05-19T10:51:16.537Z,26.02
2023-05-19T10:52:16.440Z,25.16
2023-05-19T10:53:19.272Z,25.34
2023-05-19T10:54:16.233Z,25.84
2023-05-19T10:55:16.100Z,26.13
2023-05-19T10:56:15.952Z,25.77
2023-05-19T10:57:15.776Z,25.44
2023-05-19T10:58:15.647Z,25.64
2023-05-19T10:59:15.498Z,25.91
2023-05-19T11:00:15.380Z,26.12
2023-05-19T11:01:15.200Z,26.47
2023-05-19T11:02:15.320Z,26.39
2023-05-19T11:03:14.969Z,26.06
2023-05-19T11:04:14.777Z,26.28
2023-05-19T11:05:14.677Z,25.57
2023-05-19T11:06:14.452Z,25.85
2023-05-19T11:07:14.268Z,26.06
2023-05-19T11:08:14.135Z,26.44
2023-05-19T11:09:14.022Z,26.46
2023-05-19T11:10:13.924Z,26.39
2023-05-19T11:11:13.685Z,26.64
2023-05-19T11:12:13.548Z,26.90
2023-05-19T11:14:13.326Z,27.01
2023-05-19T11:15:13.170Z,26.95
2023-05-19T11:16:13.085Z,26.97
2023-05-19T11:17:12.939Z,26.83
2023-05-19T11:18:12.895Z,25.77
2023-05-19T11:19:12.697Z,25.77
2023-05-19T11:20:12.589Z,26.06
2023-05-19T11:21:12.507Z,26.25
2023-05-19T11:22:12.410Z,26.32
2023-05-19T11:23:12.296Z,25.83
2023-05-19T11:24:12.184Z,26.12
2023-05-19T11:25:12.075Z,26.19
2023-05-19T11:26:11.923Z,26.28
2023-05-19T11:27:11.825Z,25.96
2023-05-19T11:28:11.686Z,26.29
2023-05-19T11:29:12.172Z,26.36
2023-05-19T11:30:11.618Z,25.95
2023-05-19T11:31:11.345Z,25.99
2023-05-19T11:32:12.311Z,26.18
2023-05-19T11:33:11.198Z,25.96
2023-05-19T11:34:10.997Z,26.02
2023-05-19T11:35:10.853Z,25.94
2023-05-19T11:36:10.717Z,26.11
2023-05-19T11:37:10.744Z,26.22
2023-05-19T11:38:10.538Z,26.40
2023-05-19T11:39:10.366Z,26.56
2023-05-19T11:40:10.253Z,26.64
2023-05-19T11:41:10.116Z,26.63
2023-05-19T11:42:10.007Z,26.73
2023-05-19T11:43:09.926Z,26.54
2023-05-19T11:44:09.805Z,26.49
2023-05-19T11:45:09.664Z,26.78
2023-05-19T11:46:09.702Z,26.73
2023-05-19T11:47:09.525Z,26.88
2023-05-19T11:48:09.407Z,26.68
2023-05-19T11:49:09.339Z,26.53
2023-05-19T11:50:09.201Z,26.80
2023-05-19T11:51:09.165Z,26.99
2023-05-19T11:52:09.074Z,26.56
2023-05-19T11:53:08.992Z,26.99
2023-05-19T11:54:08.903Z,27.12
2023-05-19T11:55:08.789Z,27.15
2023-05-19T11:56:08.702Z,27.11
2023-05-19T11:57:08.811Z,27.15
2023-05-19T11:58:08.566Z,26.97
2023-05-19T11:59:08.544Z,27.03
2023-05-19T12:00:08.469Z,26.97
2023-05-19T12:01:08.318Z,27.03
2023-05-19T12:02:08.293Z,27.19
2023-05-19T12:03:08.745Z,27.26
2023-05-19T12:04:08.064Z,27.37
2023-05-19T12:05:08.770Z,27.45
2023-05-19T12:06:07.905Z,27.56
2023-05-19T12:07:07.768Z,27.43
2023-05-19T12:08:08.284Z,27.45
2023-05-19T12:09:07.559Z,27.45
2023-05-19T12:10:07.459Z,27.21
2023-05-19T12:11:08.208Z,27.22
2023-05-19T12:12:07.246Z,26.92
2023-05-19T12:13:07.164Z,27.09
2023-05-19T12:14:07.698Z,26.88
2023-05-19T12:15:06.949Z,26.99
2023-05-19T12:16:06.877Z,26.90
2023-05-19T12:17:07.205Z,26.98
2023-05-19T12:18:06.816Z,27.05
2023-05-19T12:19:06.637Z,27.11
2023-05-19T12:20:06.470Z,27.06
2023-05-19T12:21:06.390Z,26.95
2023-05-19T12:22:06.300Z,27.01
2023-05-19T12:23:06.221Z,26.29
2023-05-19T12:24:06.138Z,26.51
2023-05-19T12:25:06.044Z,26.67
2023-05-19T12:26:05.977Z,26.58
2023-05-19T12:27:05.944Z,26.81
2023-05-19T12:28:05.811Z,26.84
2023-05-19T12:29:05.776Z,26.91
2023-05-19T12:30:05.799Z,27.02
2023-05-19T12:31:05.713Z,27.11
2023-05-19T12:32:07.252Z,27.16
2023-05-19T12:33:05.569Z,27.21
2023-05-19T12:34:05.521Z,27.28
2023-05-19T12:35:05.401Z,27.33
2023-05-19T12:36:05.342Z,26.87
2023-05-19T12:37:05.309Z,27.24
2023-05-19T12:38:05.257Z,27.35
2023-05-19T12:39:05.069Z,27.46
2023-05-19T12:40:05.018Z,27.56
2023-05-19T12:41:04.935Z,27.67
2023-05-19T12:42:04.836Z,27.70
2023-05-19T12:43:04.700Z,27.61
2023-05-19T12:44:04.572Z,27.71
2023-05-19T12:45:04.568Z,27.77
2023-05-19T12:46:04.371Z,27.77
2023-05-19T12:47:04.273Z,27.81
2023-05-19T12:48:04.171Z,27.73
2023-05-19T12:49:03.993Z,27.25
2023-05-19T12:50:03.926Z,27.46
2023-05-19T12:51:03.767Z,27.50
2023-05-19T12:52:06.139Z,27.16
2023-05-19T12:53:04.575Z,27.29
2023-05-19T12:54:03.479Z,27.45
2023-05-19T12:55:04.272Z,27.52